createdAt,value
2024-05-09T00:01:07.604Z,11.64
2024-05-09T00:03:47.221Z,12.00
2024-05-09T00:06:19.107Z,11.45
2024-05-09T00:08:47.585Z,11.38
2024-05-09T00:11:15.174Z,11.65
2024-05-09T00:13:42.695Z,11.67
2024-05-09T00:16:13.353Z,11.63
2024-05-09T00:18:40.837Z,11.70
2024-05-09T00:21:14.951Z,11.67
2024-05-09T00:23:42.350Z,12.02
2024-05-09T00:26:24.936Z,11.88
2024-05-09T00:28:52.238Z,11.73
2024-05-09T00:31:19.521Z,11.46
2024-05-09T00:33:46.547Z,11.34
2024-05-09T00:36:13.535Z,11.62
2024-05-09T00:38:40.483Z,11.09
2024-05-09T00:41:07.533Z,11.39
2024-05-09T00:43:34.424Z,12.52
2024-05-09T00:46:01.632Z,12.14
2024-05-09T00:48:37.732Z,10.99
2024-05-09T00:51:06.745Z,11.48
2024-05-09T00:53:54.781Z,11.89
2024-05-09T00:56:26.971Z,10.85
2024-05-09T00:58:57.789Z,11.76
2024-05-09T01:01:36.675Z,11.82
2024-05-09T01:04:05.861Z,11.26
2024-05-09T01:06:37.039Z,11.03
2024-05-09T01:09:15.911Z,11.49
2024-05-09T01:11:44.879Z,11.96
2024-05-09T01:14:14.566Z,11.54
2024-05-09T01:16:45.531Z,12.22
2024-05-09T01:19:26.566Z,12.51
2024-05-09T01:21:53.653Z,12.54
2024-05-09T01:24:23.551Z,12.17
2024-05-09T01:26:53.686Z,12.38
2024-05-09T01:29:22.259Z,13.07
2024-05-09T01:31:53.207Z,13.24
2024-05-09T01:34:20.704Z,12.63
2024-05-09T01:36:49.436Z,12.18
2024-05-09T01:39:46.968Z,13.01
2024-05-09T01:42:21.875Z,12.92
2024-05-09T01:44:54.168Z,12.99
2024-05-09T01:47:24.555Z,13.04
2024-05-09T01:50:00.017Z,12.72
2024-05-09T01:52:34.520Z,12.70
2024-05-09T01:55:06.994Z,12.97
2024-05-09T01:57:35.390Z,13.11
2024-05-09T02:00:10.302Z,13.15
2024-05-09T02:02:42.734Z,12.74
2024-05-09T02:05:15.999Z,12.75
2024-05-09T02:07:48.300Z,12.46
2024-05-09T02:10:23.470Z,13.03
2024-05-09T02:13:06.327Z,12.78
2024-05-09T02:15:33.378Z,12.60
2024-05-09T02:18:03.250Z,12.52
2024-05-09T02:20:35.826Z,12.81
2024-05-09T02:23:08.031Z,12.85
2024-05-09T02:25:46.492Z,12.83
2024-05-09T02:28:14.278Z,12.41
2024-05-09T02:30:43.518Z,12.78
2024-05-09T02:33:13.991Z,13.51
2024-05-09T02:35:44.103Z,13.20
2024-05-09T02:38:12.305Z,13.29
2024-05-09T02:40:48.617Z,13.21
2024-05-09T02:43:16.050Z,13.04
2024-05-09T02:45:50.413Z,13.54
2024-05-09T02:48:18.996Z,13.77
2024-05-09T02:50:48.317Z,13.34
2024-05-09T02:53:15.421Z,13.67
2024-05-09T02:55:48.872Z,13.68
2024-05-09T02:58:19.310Z,13.60
2024-05-09T03:00:52.445Z,14.07
2024-05-09T03:03:31.051Z,13.78
2024-05-09T03:06:01.455Z,12.98
2024-05-09T03:08:33.885Z,13.43
2024-05-09T03:11:06.102Z,13.38
2024-05-09T03:13:41.591Z,13.19
2024-05-09T03:16:11.708Z,13.92
2024-05-09T03:18:39.178Z,13.51
2024-05-09T03:21:06.765Z,13.63
2024-05-09T03:23:40.653Z,13.79
2024-05-09T03:26:15.071Z,13.83
2024-05-09T03:28:44.751Z,13.56
2024-05-09T03:31:21.313Z,13.92
2024-05-09T03:33:58.965Z,13.62
2024-05-09T03:36:31.379Z,13.81
2024-05-09T03:39:13.152Z,13.24
2024-05-09T03:41:46.609Z,12.96
2024-05-09T03:44:13.981Z,12.70
2024-05-09T03:46:53.131Z,12.68
2024-05-09T03:49:27.696Z,13.43
2024-05-09T03:51:55.135Z,12.64
2024-05-09T03:54:48.092Z,12.86
2024-05-09T03:57:15.877Z,13.20
2024-05-09T03:59:43.113Z,13.08
2024-05-09T04:02:10.508Z,14.00
2024-05-09T04:04:43.337Z,13.53
2024-05-09T04:07:16.108Z,12.99
2024-05-09T04:09:47.279Z,13.47
2024-05-09T04:12:14.789Z,13.38
2024-05-09T04:14:44.629Z,13.00
2024-05-09T04:17:26.327Z,13.93
2024-05-09T04:19:53.953Z,13.91
2024-05-09T04:22:24.709Z,14.06
2024-05-09T04:25:00.899Z,13.68
2024-05-09T04:27:31.241Z,13.49
2024-05-09T04:32:50.504Z,14.07
2024-05-09T04:35:23.115Z,14.53
2024-05-09T04:37:50.148Z,13.86
2024-05-09T04:40:28.346Z,13.63
2024-05-09T04:43:00.418Z,14.21
2024-05-09T04:45:27.605Z,14.54
2024-05-09T04:48:02.854Z,14.67
2024-05-09T04:50:38.304Z,14.75
2024-05-09T04:53:11.529Z,14.62
2024-05-09T04:55:39.422Z,13.89
2024-05-09T04:58:09.846Z,14.36
2024-05-09T05:00:42.403Z,14.48
2024-05-09T05:03:34.934Z,14.45
2024-05-09T05:06:02.057Z,14.08
2024-05-09T05:08:29.152Z,14.40
2024-05-09T05:11:07.083Z,14.16
2024-05-09T05:13:38.650Z,14.40
2024-05-09T05:16:09.906Z,14.12
2024-05-09T05:18:42.471Z,14.18
2024-05-09T05:21:09.525Z,13.76
2024-05-09T05:23:42.947Z,15.19
2024-05-09T05:26:14.164Z,14.03
2024-05-09T05:29:00.048Z,14.01
2024-05-09T05:31:33.315Z,13.30
2024-05-09T05:34:03.283Z,12.70
2024-05-09T05:36:37.097Z,13.23
2024-05-09T05:39:10.284Z,13.69
2024-05-09T05:41:37.586Z,13.54
2024-05-09T05:44:14.891Z,12.80
2024-05-09T05:46:45.133Z,12.75
2024-05-09T05:49:12.617Z,13.24
2024-05-09T05:51:55.225Z,13.29
2024-05-09T05:54:26.867Z,13.25
2024-05-09T05:56:59.871Z,13.33
2024-05-09T05:59:27.327Z,12.87
2024-05-09T06:02:06.619Z,13.33
2024-05-09T06:04:34.043Z,12.82
2024-05-09T06:07:01.307Z,13.60
2024-05-09T06:09:31.571Z,13.14
2024-05-09T06:12:05.247Z,13.37
2024-05-09T06:14:32.675Z,13.21
2024-05-09T06:17:01.808Z,12.66
2024-05-09T06:19:33.069Z,12.47
2024-05-09T06:22:03.312Z,12.39
2024-05-09T06:24:38.935Z,11.70
2024-05-09T06:27:13.689Z,11.77
2024-05-09T06:29:41.043Z,11.76
2024-05-09T06:32:08.445Z,12.06
2024-05-09T06:34:38.365Z,11.80
2024-05-09T06:37:11.150Z,11.45
2024-05-09T06:39:38.441Z,11.85
2024-05-09T06:42:05.716Z,12.06
2024-05-09T06:44:33.061Z,12.00
2024-05-09T06:47:00.528Z,12.06
2024-05-09T06:49:29.970Z,12.69
2024-05-09T06:52:00.000Z,13.05
2024-05-09T06:54:29.698Z,12.19
2024-05-09T06:56:59.504Z,11.86
2024-05-09T07:02:35.199Z,10.98
2024-05-09T07:05:08.061Z,11.28
2024-05-09T07:07:35.422Z,11.26
2024-05-09T07:10:03.862Z,11.08
2024-05-09T07:12:32.393Z,10.90
2024-05-09T07:17:47.782Z,10.87
2024-05-09T07:20:23.491Z,10.58
2024-05-09T07:23:02.410Z,10.70
2024-05-09T07:25:30.314Z,11.15
2024-05-09T07:28:00.040Z,11.53
2024-05-09T07:30:36.144Z,10.99
2024-05-09T07:33:04.013Z,11.06
2024-05-09T07:35:43.336Z,11.52
2024-05-09T07:38:18.157Z,10.98
2024-05-09T07:40:45.219Z,11.18
2024-05-09T07:43:12.486Z,11.49
2024-05-09T07:45:50.802Z,11.24
2024-05-09T07:50:00.440Z,11.05
2024-05-09T07:53:50.777Z,10.71
2024-05-09T07:56:22.577Z,10.23
2024-05-09T07:58:53.203Z,10.08
2024-05-09T08:01:30.508Z,9.87
2024-05-09T08:04:04.168Z,9.59
2024-05-09T08:06:44.315Z,9.68
2024-05-09T08:09:16.741Z,9.24
2024-05-09T08:11:46.433Z,9.98
2024-05-09T08:14:16.302Z,9.84
2024-05-09T08:16:43.148Z,9.58
2024-05-09T08:19:15.275Z,9.78
2024-05-09T08:21:43.379Z,9.50
2024-05-09T08:24:10.279Z,10.04
2024-05-09T08:26:44.181Z,9.36
2024-05-09T08:29:11.047Z,9.45
2024-05-09T08:31:43.970Z,9.93
2024-05-09T08:34:23.392Z,9.60
2024-05-09T08:36:54.221Z,8.76
2024-05-09T08:39:27.279Z,8.57
2024-05-09T08:41:57.732Z,8.37
2024-05-09T08:44:25.062Z,8.18
2024-05-09T08:46:52.388Z,8.63
2024-05-09T08:49:21.413Z,8.68
2024-05-09T08:51:59.585Z,9.20
2024-05-09T08:57:18.455Z,9.13
2024-05-09T08:59:48.945Z,9.42
2024-05-09T09:02:16.599Z,8.82
2024-05-09T09:04:59.271Z,8.37
2024-05-09T09:07:36.338Z,8.69
2024-05-09T09:10:12.897Z,8.84
2024-05-09T09:12:42.216Z,8.55
2024-05-09T09:15:11.553Z,7.99
2024-05-09T09:17:50.455Z,8.46
2024-05-09T09:20:23.240Z,8.71
2024-05-09T09:25:45.216Z,7.31
2024-05-09T09:28:18.459Z,6.89
2024-05-09T09:30:48.439Z,6.62
2024-05-09T09:33:20.469Z,8.37
2024-05-09T09:35:47.406Z,9.24
2024-05-09T09:38:27.571Z,9.13
2024-05-09T09:40:56.330Z,9.05
2024-05-09T09:43:36.370Z,8.88
2024-05-09T09:46:11.577Z,8.99
2024-05-09T09:48:40.653Z,9.08
2024-05-09T09:51:17.402Z,9.51
2024-05-09T09:53:47.982Z,9.38
2024-05-09T09:56:17.235Z,9.73
2024-05-09T09:58:46.588Z,10.28
2024-05-09T10:01:35.976Z,9.37
2024-05-09T10:04:10.637Z,9.71
2024-05-09T10:06:50.451Z,9.91
2024-05-09T10:09:33.554Z,9.55
2024-05-09T10:12:20.249Z,8.91
2024-05-09T10:15:06.110Z,6.64
2024-05-09T10:17:36.499Z,7.22
2024-05-09T10:20:21.343Z,7.50
2024-05-09T10:23:01.123Z,9.52
2024-05-09T10:25:43.750Z,10.02
2024-05-09T10:28:13.411Z,9.81
2024-05-09T10:31:14.176Z,9.21
2024-05-09T10:33:55.664Z,9.16
2024-05-09T10:36:27.719Z,9.18
2024-05-09T10:38:55.343Z,9.42
2024-05-09T10:41:32.339Z,9.08
2024-05-09T10:44:00.496Z,7.80
2024-05-09T10:46:27.403Z,9.31
2024-05-09T10:49:08.011Z,9.55
2024-05-09T10:51:36.026Z,8.88
2024-05-09T10:54:09.158Z,7.98
2024-05-09T10:56:40.200Z,6.03
2024-05-09T10:59:07.007Z,5.44
2024-05-09T11:01:34.308Z,5.67
2024-05-09T11:04:08.361Z,5.57
2024-05-09T11:06:55.303Z,6.35
2024-05-09T11:09:25.619Z,8.17
2024-05-09T11:11:55.589Z,6.91
2024-05-09T11:14:25.380Z,5.98
2024-05-09T11:17:05.603Z,5.58
2024-05-09T11:19:41.467Z,6.19
2024-05-09T11:22:11.329Z,5.87
2024-05-09T11:24:41.331Z,5.96
2024-05-09T11:27:32.831Z,5.42
2024-05-09T11:30:04.251Z,5.21
2024-05-09T11:32:31.801Z,5.89
2024-05-09T11:35:10.121Z,5.63
2024-05-09T11:37:40.370Z,5.64
2024-05-09T11:40:16.991Z,5.42
2024-05-09T11:42:53.229Z,5.33
2024-05-09T11:45:20.831Z,5.49
2024-05-09T11:47:57.596Z,6.07
2024-05-09T11:50:36.357Z,5.66
2024-05-09T11:53:09.265Z,5.28
2024-05-09T11:55:38.777Z,5.31
2024-05-09T11:58:05.866Z,4.90
2024-05-09T12:00:39.901Z,5.00
2024-05-09T12:03:11.617Z,5.51
2024-05-09T12:05:40.686Z,5.06
2024-05-09T12:08:07.853Z,5.23
2024-05-09T12:10:55.196Z,5.02
2024-05-09T12:13:24.633Z,5.17
2024-05-09T12:16:09.667Z,5.12
2024-05-09T12:18:39.256Z,5.23
2024-05-09T12:21:07.848Z,5.01
2024-05-09T12:23:40.410Z,5.04
2024-05-09T12:26:09.907Z,4.43
2024-05-09T12:28:43.143Z,4.47
2024-05-09T12:31:11.767Z,4.22
2024-05-09T12:33:44.211Z,4.86
2024-05-09T12:36:15.769Z,4.55
2024-05-09T12:39:06.376Z,4.77
2024-05-09T12:41:33.265Z,4.53
2024-05-09T12:44:03.113Z,4.56
2024-05-09T12:46:35.225Z,4.68
2024-05-09T12:49:05.171Z,4.48
2024-05-09T12:51:36.034Z,4.62
2024-05-09T12:54:04.680Z,4.23
2024-05-09T12:56:32.105Z,4.54
2024-05-09T12:59:04.740Z,4.34
2024-05-09T13:01:36.318Z,4.36
2024-05-09T13:04:03.946Z,4.30
2024-05-09T13:06:31.534Z,4.25
2024-05-09T13:09:02.777Z,4.30
2024-05-09T13:11:32.357Z,4.34
2024-05-09T13:14:02.433Z,4.51
2024-05-09T13:16:32.724Z,4.44
2024-05-09T13:18:59.805Z,4.67
2024-05-09T13:21:31.463Z,4.48
2024-05-09T13:24:01.204Z,4.70
2024-05-09T13:26:30.368Z,4.58
2024-05-09T13:28:59.652Z,4.51
2024-05-09T13:31:26.594Z,4.60
2024-05-09T13:33:59.275Z,4.49
2024-05-09T13:36:26.325Z,4.28
2024-05-09T13:38:55.278Z,4.23
2024-05-09T13:41:24.664Z,4.31
2024-05-09T13:43:51.498Z,3.87
2024-05-09T13:46:22.399Z,3.66
2024-05-09T13:48:52.009Z,3.68
2024-05-09T13:51:18.991Z,3.83
2024-05-09T13:53:53.435Z,3.68
2024-05-09T13:56:22.260Z,3.86
2024-05-09T13:59:03.301Z,4.16
2024-05-09T14:01:33.346Z,3.90
2024-05-09T14:04:03.064Z,4.15
2024-05-09T14:06:30.217Z,4.10
2024-05-09T14:08:59.819Z,3.98
2024-05-09T14:11:29.716Z,4.01
2024-05-09T14:14:05.694Z,3.92
2024-05-09T14:16:42.009Z,4.04
2024-05-09T14:19:14.898Z,3.62
2024-05-09T14:21:44.146Z,3.95
2024-05-09T14:24:11.454Z,3.89
2024-05-09T14:26:41.208Z,4.05
2024-05-09T14:29:14.926Z,3.95
2024-05-09T14:31:42.209Z,3.86
2024-05-09T14:34:09.921Z,3.90
2024-05-09T14:36:37.430Z,3.93
2024-05-09T14:39:10.082Z,3.78
2024-05-09T14:41:39.981Z,3.98
2024-05-09T14:44:09.461Z,3.83
2024-05-09T14:46:45.952Z,4.32
2024-05-09T14:49:28.408Z,3.90
2024-05-09T14:52:05.949Z,4.05
2024-05-09T14:54:33.320Z,3.96
2024-05-09T14:57:07.313Z,4.10
2024-05-09T14:59:34.506Z,4.06
2024-05-09T15:02:04.450Z,3.73
2024-05-09T15:04:38.297Z,3.47
2024-05-09T15:07:15.148Z,3.73
2024-05-09T15:10:26.534Z,4.05
2024-05-09T15:13:08.110Z,3.70
2024-05-09T15:15:40.486Z,4.51
2024-05-09T15:18:08.416Z,3.93
2024-05-09T15:20:37.399Z,4.15
2024-05-09T15:23:08.316Z,3.92
2024-05-09T15:25:36.898Z,4.02
2024-05-09T15:28:15.656Z,3.87
2024-05-09T15:30:47.791Z,3.99
2024-05-09T15:33:18.208Z,4.39
2024-05-09T15:36:00.862Z,4.17
2024-05-09T15:38:29.799Z,4.14
2024-05-09T15:41:05.176Z,4.19
2024-05-09T15:43:34.839Z,4.21
2024-05-09T15:46:17.410Z,4.42
2024-05-09T15:48:47.240Z,4.44
2024-05-09T15:51:17.076Z,11.51
2024-05-09T15:53:47.520Z,12.82
2024-05-09T15:56:17.570Z,7.30
2024-05-09T15:58:50.919Z,5.14
2024-05-09T16:01:18.378Z,4.65
2024-05-09T16:03:45.662Z,4.31
2024-05-09T16:06:25.716Z,4.08
2024-05-09T16:11:41.386Z,4.19
2024-05-09T16:14:15.891Z,4.11
2024-05-09T16:16:43.460Z,4.66
2024-05-09T16:19:10.947Z,4.11
2024-05-09T16:21:38.204Z,3.73
2024-05-09T16:24:05.376Z,4.40
2024-05-09T16:26:52.827Z,4.18
2024-05-09T16:29:38.971Z,4.18
2024-05-09T16:32:08.976Z,4.47
2024-05-09T16:34:41.705Z,4.37
2024-05-09T16:37:20.677Z,4.57
2024-05-09T16:39:47.662Z,4.51
2024-05-09T17:18:30.908Z,3.83
2024-05-09T17:21:07.690Z,4.01
2024-05-09T17:23:53.268Z,3.73
2024-05-09T17:26:21.976Z,3.76
2024-05-09T17:28:50.900Z,3.52
2024-05-09T17:31:18.432Z,3.76
2024-05-09T17:33:57.690Z,3.75
2024-05-09T17:36:27.589Z,3.59
2024-05-09T17:39:00.261Z,3.81
2024-05-09T17:41:34.774Z,3.74
2024-05-09T17:44:06.460Z,3.79
2024-05-09T17:49:33.193Z,3.72
2024-05-09T17:52:05.210Z,3.74
2024-05-09T17:54:32.136Z,3.75
2024-05-09T17:57:23.833Z,3.46
2024-05-09T17:59:53.429Z,3.75
2024-05-09T18:02:22.811Z,3.65
2024-05-09T18:04:59.130Z,3.59
2024-05-09T18:10:25.457Z,3.62
2024-05-09T18:16:48.121Z,3.63
2024-05-09T18:19:35.373Z,3.70
2024-05-09T18:22:02.443Z,3.68
2024-05-09T18:24:47.289Z,3.65
2024-05-09T18:27:22.130Z,3.80
2024-05-09T18:29:53.611Z,3.64
2024-05-09T18:32:21.327Z,3.60
2024-05-09T18:34:51.253Z,3.62
2024-05-09T18:37:35.400Z,3.47
2024-05-09T18:40:12.176Z,3.70
2024-05-09T18:43:35.111Z,3.57
2024-05-09T18:46:11.809Z,3.72
2024-05-09T18:48:41.581Z,3.55
2024-05-09T18:51:10.858Z,3.63
2024-05-09T18:53:38.082Z,3.62
2024-05-09T18:56:06.176Z,3.82
2024-05-09T18:59:26.771Z,3.74
2024-05-09T19:11:36.645Z,3.98
2024-05-09T19:21:54.054Z,4.23
2024-05-09T19:24:21.456Z,4.16
2024-05-09T19:26:57.402Z,4.00
2024-05-09T19:29:24.303Z,3.96
2024-05-09T19:31:51.361Z,4.04
2024-05-09T19:34:21.046Z,3.89
2024-05-09T19:36:48.387Z,3.96
2024-05-09T19:39:23.767Z,4.31
2024-05-09T19:41:54.219Z,4.33
2024-05-09T19:44:21.236Z,4.19
2024-05-09T19:46:59.416Z,4.47
2024-05-09T19:49:36.780Z,4.49
2024-05-09T19:52:08.259Z,4.44
2024-05-09T19:54:51.610Z,4.39
2024-05-09T19:57:25.710Z,4.32
2024-05-09T20:00:12.050Z,4.56
2024-05-09T20:02:57.428Z,4.46
2024-05-09T20:17:17.915Z,4.65
2024-05-09T20:19:27.237Z,4.68
2024-05-09T20:21:54.560Z,4.38
2024-05-09T20:28:25.002Z,4.63
2024-05-09T20:45:36.660Z,4.79
2024-05-09T20:48:12.957Z,4.48
2024-05-09T20:50:53.286Z,4.42
2024-05-09T20:54:14.948Z,4.87
2024-05-09T20:56:51.945Z,4.98
2024-05-09T20:59:21.248Z,4.80
2024-05-09T21:01:56.412Z,4.99
2024-05-09T21:04:23.827Z,4.60
2024-05-09T21:06:57.813Z,4.59
2024-05-09T21:09:31.622Z,4.86
2024-05-09T21:12:00.935Z,4.88
2024-05-09T21:14:30.353Z,4.65
2024-05-09T21:16:59.738Z,5.18
2024-05-09T21:22:58.198Z,5.11
2024-05-09T21:25:27.501Z,5.03
2024-05-09T21:28:05.492Z,5.18
2024-05-09T21:30:47.748Z,5.28
2024-05-09T21:33:19.285Z,4.88
2024-05-09T21:35:46.691Z,5.03
2024-05-09T21:38:16.996Z,5.01
2024-05-09T21:40:45.917Z,4.90
2024-05-09T21:43:15.901Z,5.21
2024-05-09T21:45:48.481Z,5.23
2024-05-09T21:48:15.500Z,5.41
2024-05-09T21:50:48.598Z,5.75
2024-05-09T21:53:18.705Z,5.67
2024-05-09T21:55:46.843Z,5.82
2024-05-09T21:58:14.484Z,5.94
2024-05-09T22:00:42.346Z,5.88
2024-05-09T22:03:10.721Z,5.90
2024-05-09T22:05:39.786Z,6.03
2024-05-09T22:08:14.372Z,5.71
2024-05-09T22:10:41.562Z,5.44
2024-05-09T22:13:10.990Z,5.31
2024-05-09T22:15:40.402Z,5.33
2024-05-09T22:18:09.155Z,5.52
2024-05-09T22:20:44.815Z,5.29
2024-05-09T22:23:16.025Z,5.19
2024-05-09T22:25:43.026Z,5.76
2024-05-09T22:28:19.215Z,5.90
2024-05-09T22:30:47.160Z,5.54
2024-05-09T22:33:17.110Z,5.60
2024-05-09T22:35:44.119Z,5.45
2024-05-09T22:38:15.392Z,5.45
2024-05-09T22:40:49.198Z,5.26
2024-05-09T22:43:26.158Z,5.68
2024-05-09T22:45:59.436Z,5.54
2024-05-09T22:48:26.989Z,5.40
2024-05-09T22:50:56.959Z,5.13
2024-05-09T22:53:25.302Z,4.95
2024-05-09T22:55:53.667Z,5.16
2024-05-09T22:58:21.281Z,5.18
2024-05-09T23:11:12.386Z,4.81
2024-05-09T23:13:39.923Z,4.92
2024-05-09T23:16:25.618Z,5.28
2024-05-09T23:18:53.136Z,5.10
2024-05-09T23:21:20.515Z,5.03
2024-05-09T23:23:47.781Z,4.68
2024-05-09T23:29:02.572Z,5.00
2024-05-09T23:31:30.213Z,4.73
2024-05-09T23:34:00.285Z,5.49
2024-05-09T23:36:28.064Z,5.21
2024-05-09T23:38:55.399Z,5.28
2024-05-09T23:41:25.568Z,5.34
2024-05-09T23:43:55.551Z,5.12
2024-05-09T23:49:12.520Z,4.87
2024-05-09T23:51:39.935Z,5.52
2024-05-09T23:54:07.258Z,5.79
2024-05-09T23:56:34.506Z,5.41
2024-05-09T23:59:04.785Z,5.53
